sensor_id;sensor_type;location;lat;lon;timestamp;pressure;altitude;pressure_sealevel;temperature;humidity
24031;BME280;12240;51.142;22.486;2023-04-04T00:00:55;99896.50;;;-0.72;100.00
24031;BME280;12240;51.142;22.486;2023-04-04T00:03:23;99900.91;;;-0.72;100.00
24031;BME280;12240;51.142;22.486;2023-04-04T00:05:52;99897.34;;;-0.71;100.00
24031;BME280;12240;51.142;22.486;2023-04-04T00:08:20;99900.03;;;-0.73;100.00
24031;BME280;12240;51.142;22.486;2023-04-04T00:10:48;99904.41;;;-0.73;100.00
24031;BME280;12240;51.142;22.486;2023-04-04T00:13:16;99902.84;;;-0.77;100.00
24031;BME280;12240;51.142;22.486;2023-04-04T00:15:44;99908.75;;;-0.72;100.00
24031;BME280;12240;51.142;22.486;2023-04-04T00:18:12;99893.72;;;-0.87;100.00
24031;BME280;12240;51.142;22.486;2023-04-04T00:20:40;99898.13;;;-0.88;100.00
24031;BME280;12240;51.142;22.486;2023-04-04T00:23:09;99914.69;;;-0.89;100.00
24031;BME280;12240;51.142;22.486;2023-04-04T00:25:40;99916.53;;;-0.91;100.00
24031;BME280;12240;51.142;22.486;2023-04-04T00:28:08;99927.19;;;-0.95;100.00
24031;BME280;12240;51.142;22.486;2023-04-04T00:30:38;99921.19;;;-0.97;100.00
24031;BME280;12240;51.142;22.486;2023-04-04T00:33:07;99927.41;;;-1.00;100.00
24031;BME280;12240;51.142;22.486;2023-04-04T00:35:35;99934.78;;;-1.09;100.00
24031;BME280;12240;51.142;22.486;2023-04-04T00:38:04;99941.97;;;-1.14;100.00
24031;BME280;12240;51.142;22.486;2023-04-04T00:40:47;99942.38;;;-1.24;100.00
24031;BME280;12240;51.142;22.486;2023-04-04T00:43:17;99953.22;;;-1.33;100.00
24031;BME280;12240;51.142;22.486;2023-04-04T00:45:45;99950.63;;;-1.33;100.00
24031;BME280;12240;51.142;22.486;2023-04-04T00:48:14;99949.03;;;-1.37;100.00
24031;BME280;12240;51.142;22.486;2023-04-04T00:50:42;99951.00;;;-1.42;100.00
24031;BME280;12240;51.142;22.486;2023-04-04T00:53:10;99950.13;;;-1.42;100.00
24031;BME280;12240;51.142;22.486;2023-04-04T00:55:38;99951.78;;;-1.40;100.00
24031;BME280;12240;51.142;22.486;2023-04-04T00:58:07;99947.53;;;-1.42;100.00
24031;BME280;12240;51.142;22.486;2023-04-04T01:00:36;99950.22;;;-1.44;100.00
24031;BME280;12240;51.142;22.486;2023-04-04T01:03:05;99952.97;;;-1.47;100.00
24031;BME280;12240;51.142;22.486;2023-04-04T01:05:34;99949.41;;;-1.46;100.00
24031;BME280;12240;51.142;22.486;2023-04-04T01:08:03;99951.97;;;-1.44;100.00
24031;BME280;12240;51.142;22.486;2023-04-04T01:10:32;99952.22;;;-1.50;100.00
24031;BME280;12240;51.142;22.486;2023-04-04T01:13:00;99944.47;;;-1.52;100.00
24031;BME280;12240;51.142;22.486;2023-04-04T01:15:29;99955.50;;;-1.45;100.00
24031;BME280;12240;51.142;22.486;2023-04-04T01:18:01;99956.66;;;-1.52;100.00
24031;BME280;12240;51.142;22.486;2023-04-04T01:20:33;99956.72;;;-1.54;100.00
24031;BME280;12240;51.142;22.486;2023-04-04T01:23:08;99951.50;;;-1.54;100.00
24031;BME280;12240;51.142;22.486;2023-04-04T01:25:38;99952.47;;;-1.56;100.00
24031;BME280;12240;51.142;22.486;2023-04-04T01:28:12;99957.69;;;-1.56;100.00
24031;BME280;12240;51.142;22.486;2023-04-04T01:30:41;99963.06;;;-1.59;100.00
24031;BME280;12240;51.142;22.486;2023-04-04T01:33:30;99965.00;;;-1.64;100.00
24031;BME280;12240;51.142;22.486;2023-04-04T01:36:33;99966.94;;;-1.69;100.00
24031;BME280;12240;51.142;22.486;2023-04-04T01:42:26;99970.94;;;-1.82;100.00
24031;BME280;12240;51.142;22.486;2023-04-04T01:44:56;99981.53;;;-1.85;100.00
24031;BME280;12240;51.142;22.486;2023-04-04T01:47:40;99975.47;;;-1.86;100.00
24031;BME280;12240;51.142;22.486;2023-04-04T01:50:13;99976.22;;;-1.84;100.00
24031;BME280;12240;51.142;22.486;2023-04-04T01:52:43;99977.16;;;-1.85;100.00
24031;BME280;12240;51.142;22.486;2023-04-04T01:55:11;99978.19;;;-1.89;100.00
24031;BME280;12240;51.142;22.486;2023-04-04T01:57:39;99972.06;;;-1.88;100.00
24031;BME280;12240;51.142;22.486;2023-04-04T02:00:08;99980.91;;;-1.92;100.00
24031;BME280;12240;51.142;22.486;2023-04-04T02:02:43;99981.91;;;-1.94;100.00
24031;BME280;12240;51.142;22.486;2023-04-04T02:05:13;99980.91;;;-1.92;100.00
24031;BME280;12240;51.142;22.486;2023-04-04T02:07:41;99979.91;;;-1.88;100.00
24031;BME280;12240;51.142;22.486;2023-04-04T02:10:21;99984.25;;;-1.88;100.00
24031;BME280;12240;51.142;22.486;2023-04-04T02:12:52;99986.56;;;-1.81;100.00
24031;BME280;12240;51.142;22.486;2023-04-04T02:15:22;99979.56;;;-1.80;100.00
24031;BME280;12240;51.142;22.486;2023-04-04T02:17:51;99974.25;;;-1.77;100.00
24031;BME280;12240;51.142;22.486;2023-04-04T02:20:19;99976.91;;;-1.79;100.00
24031;BME280;12240;51.142;22.486;2023-04-04T02:22:54;99977.69;;;-1.77;100.00
24031;BME280;12240;51.142;22.486;2023-04-04T02:25:24;99974.19;;;-1.76;100.00
24031;BME280;12240;51.142;22.486;2023-04-04T02:27:52;99982.09;;;-1.77;100.00
24031;BME280;12240;51.142;22.486;2023-04-04T02:30:20;99985.44;;;-1.74;100.00
24031;BME280;12240;51.142;22.486;2023-04-04T02:32:50;99981.03;;;-1.73;100.00
24031;BME280;12240;51.142;22.486;2023-04-04T02:35:20;99982.63;;;-1.69;100.00
24031;BME280;12240;51.142;22.486;2023-04-04T02:37:50;99979.94;;;-1.68;100.00
24031;BME280;12240;51.142;22.486;2023-04-04T02:40:23;99979.06;;;-1.68;100.00
24031;BME280;12240;51.142;22.486;2023-04-04T02:42:51;99980.88;;;-1.69;100.00
24031;BME280;12240;51.142;22.486;2023-04-04T02:45:20;99977.25;;;-1.66;100.00
24031;BME280;12240;51.142;22.486;2023-04-04T02:47:58;99972.78;;;-1.63;100.00
24031;BME280;12240;51.142;22.486;2023-04-04T02:50:37;99978.13;;;-1.66;100.00
24031;BME280;12240;51.142;22.486;2023-04-04T02:53:08;99977.03;;;-1.60;100.00
24031;BME280;12240;51.142;22.486;2023-04-04T02:55:37;99977.84;;;-1.60;100.00
24031;BME280;12240;51.142;22.486;2023-04-04T02:58:05;99977.84;;;-1.60;100.00
24031;BME280;12240;51.142;22.486;2023-04-04T03:00:33;99985.03;;;-1.65;100.00
24031;BME280;12240;51.142;22.486;2023-04-04T03:03:02;99982.63;;;-1.69;100.00
24031;BME280;12240;51.142;22.486;2023-04-04T03:05:34;99987.09;;;-1.73;100.00
24031;BME280;12240;51.142;22.486;2023-04-04T03:08:03;99986.25;;;-1.73;100.00
24031;BME280;12240;51.142;22.486;2023-04-04T03:10:31;99986.13;;;-1.70;100.00
24031;BME280;12240;51.142;22.486;2023-04-04T03:12:59;99985.44;;;-1.74;100.00
24031;BME280;12240;51.142;22.486;2023-04-04T03:15:30;99982.81;;;-1.74;100.00
24031;BME280;12240;51.142;22.486;2023-04-04T03:17:58;99983.72;;;-1.75;100.00
24031;BME280;12240;51.142;22.486;2023-04-04T03:20:29;99979.56;;;-1.80;100.00
24031;BME280;12240;51.142;22.486;2023-04-04T03:22:58;99975.34;;;-1.83;100.00
24031;BME280;12240;51.142;22.486;2023-04-04T03:25:26;99987.59;;;-1.85;100.00
24031;BME280;12240;51.142;22.486;2023-04-04T03:27:55;99976.38;;;-1.87;100.00
24031;BME280;12240;51.142;22.486;2023-04-04T03:30:26;99973.16;;;-1.93;100.00
24031;BME280;12240;51.142;22.486;2023-04-04T03:32:54;99984.53;;;-1.96;100.00
24031;BME280;12240;51.142;22.486;2023-04-04T03:35:22;99977.09;;;-2.05;100.00
24031;BME280;12240;51.142;22.486;2023-04-04T03:37:51;99977.19;;;-2.08;100.00
24031;BME280;12240;51.142;22.486;2023-04-04T03:40:21;99972.03;;;-2.09;100.00
24031;BME280;12240;51.142;22.486;2023-04-04T03:42:49;99973.13;;;-2.15;100.00
24031;BME280;12240;51.142;22.486;2023-04-04T03:45:19;99970.97;;;-2.25;100.00
24031;BME280;12240;51.142;22.486;2023-04-04T03:47:47;99971.69;;;-2.22;100.00
24031;BME280;12240;51.142;22.486;2023-04-04T03:50:15;99975.38;;;-2.27;100.00
24031;BME280;12240;51.142;22.486;2023-04-04T03:52:49;99971.91;;;-2.28;100.00
24031;BME280;12240;51.142;22.486;2023-04-04T03:55:18;99970.22;;;-2.29;100.00
24031;BME280;12240;51.142;22.486;2023-04-04T03:57:47;99976.50;;;-2.34;100.00
24031;BME280;12240;51.142;22.486;2023-04-04T04:00:19;99980.06;;;-2.37;100.00
24031;BME280;12240;51.142;22.486;2023-04-04T04:02:47;99978.56;;;-2.43;100.00
24031;BME280;12240;51.142;22.486;2023-04-04T04:05:15;99978.56;;;-2.43;100.00
24031;BME280;12240;51.142;22.486;2023-04-04T04:07:46;99972.63;;;-2.46;100.00
24031;BME280;12240;51.142;22.486;2023-04-04T04:10:14;99969.22;;;-2.48;100.00
24031;BME280;12240;51.142;22.486;2023-04-04T04:12:42;99968.34;;;-2.49;100.00
24031;BME280;12240;51.142;22.486;2023-04-04T04:15:11;99964.00;;;-2.48;100.00
24031;BME280;12240;51.142;22.486;2023-04-04T04:17:40;99963.06;;;-2.47;100.00
24031;BME280;12240;51.142;22.486;2023-04-04T04:20:11;99957.91;;;-2.49;100.00
24031;BME280;12240;51.142;22.486;2023-04-04T04:22:46;99954.50;;;-2.51;100.00
24031;BME280;12240;51.142;22.486;2023-04-04T04:25:15;99954.31;;;-2.45;100.00
24031;BME280;12240;51.142;22.486;2023-04-04T04:27:56;99955.13;;;-2.44;100.00
24031;BME280;12240;51.142;22.486;2023-04-04T04:30:26;99955.81;;;-2.39;100.00
24031;BME280;12240;51.142;22.486;2023-04-04T04:32:54;99959.22;;;-2.37;100.00
24031;BME280;12240;51.142;22.486;2023-04-04T04:35:29;99958.13;;;-2.31;100.00
24031;BME280;12240;51.142;22.486;2023-04-04T04:38:00;99957.25;;;-2.30;100.00
24031;BME280;12240;51.142;22.486;2023-04-04T04:40:29;99957.84;;;-2.24;100.00
24031;BME280;12240;51.142;22.486;2023-04-04T04:43:04;99959.38;;;-2.18;100.00
24031;BME280;12240;51.142;22.486;2023-04-04T04:45:32;99965.19;;;-2.12;100.00
24031;BME280;12240;51.142;22.486;2023-04-04T04:48:08;99958.94;;;-2.08;100.00
24031;BME280;12240;51.142;22.486;2023-04-04T04:50:46;99949.97;;;-2.01;100.00
24031;BME280;12240;51.142;22.486;2023-04-04T04:53:20;99958.50;;;-1.97;100.00
24031;BME280;12240;51.142;22.486;2023-04-04T04:55:49;99958.28;;;-1.91;100.00
24031;BME280;12240;51.142;22.486;2023-04-04T04:58:20;99956.28;;;-1.85;100.00
24031;BME280;12240;51.142;22.486;2023-04-04T05:00:55;99962.69;;;-1.72;100.00
24031;BME280;12240;51.142;22.486;2023-04-04T05:03:35;99957.63;;;-1.55;100.00
24031;BME280;12240;51.142;22.486;2023-04-04T05:06:07;99955.84;;;-1.12;100.00
24031;BME280;12240;51.142;22.486;2023-04-04T05:08:37;99947.66;;;-0.66;100.00
24031;BME280;12240;51.142;22.486;2023-04-04T05:11:18;99947.09;;;-0.17;100.00
24031;BME280;12240;51.142;22.486;2023-04-04T05:13:47;99949.84;;;0.17;100.00
24031;BME280;12240;51.142;22.486;2023-04-04T05:16:16;99958.63;;;0.33;100.00
24031;BME280;12240;51.142;22.486;2023-04-04T05:18:47;99959.81;;;0.45;100.00
24031;BME280;12240;51.142;22.486;2023-04-04T05:21:15;99958.16;;;0.25;100.00
24031;BME280;12240;51.142;22.486;2023-04-04T05:23:45;99945.63;;;0.32;100.00
24031;BME280;12240;51.142;22.486;2023-04-04T05:26:16;99943.88;;;0.66;100.00
24031;BME280;12240;51.142;22.486;2023-04-04T05:28:48;99940.00;;;0.90;100.00
24031;BME280;12240;51.142;22.486;2023-04-04T05:31:20;99942.56;;;0.92;100.00
24031;BME280;12240;51.142;22.486;2023-04-04T05:33:50;99940.25;;;0.86;100.00
24031;BME280;12240;51.142;22.486;2023-04-04T05:36:38;99926.81;;;0.92;100.00
24031;BME280;12240;51.142;22.486;2023-04-04T05:39:07;99926.97;;;0.89;100.00
24031;BME280;12240;51.142;22.486;2023-04-04T05:41:43;99931.19;;;1.08;100.00
24031;BME280;12240;51.142;22.486;2023-04-04T05:44:15;99935.56;;;1.25;100.00
24031;BME280;12240;51.142;22.486;2023-04-04T05:46:44;99931.00;;;1.29;100.00
24031;BME280;12240;51.142;22.486;2023-04-04T05:49:12;99920.09;;;1.03;100.00
24031;BME280;12240;51.142;22.486;2023-04-04T05:51:48;99930.16;;;1.28;100.00
24031;BME280;12240;51.142;22.486;2023-04-04T05:54:17;99930.25;;;1.42;100.00
24031;BME280;12240;51.142;22.486;2023-04-04T05:56:45;99933.75;;;1.74;100.00
24031;BME280;12240;51.142;22.486;2023-04-04T05:59:25;99933.44;;;1.95;100.00
24031;BME280;12240;51.142;22.486;2023-04-04T06:02:01;99930.38;;;2.03;100.00
24031;BME280;12240;51.142;22.486;2023-04-04T06:04:30;99925.19;;;2.17;100.00
24031;BME280;12240;51.142;22.486;2023-04-04T06:07:01;99923.41;;;2.17;100.00
24031;BME280;12240;51.142;22.486;2023-04-04T06:09:29;99917.06;;;2.21;100.00
24031;BME280;12240;51.142;22.486;2023-04-04T06:11:57;99913.66;;;2.19;100.00
24031;BME280;12240;51.142;22.486;2023-04-04T06:14:27;99906.28;;;2.26;100.00
24031;BME280;12240;51.142;22.486;2023-04-04T06:16:56;99907.31;;;2.23;100.00
24031;BME280;12240;51.142;22.486;2023-04-04T06:19:26;99904.59;;;2.25;100.00
24031;BME280;12240;51.142;22.486;2023-04-04T06:21:54;99915.94;;;2.25;100.00
24031;BME280;12240;51.142;22.486;2023-04-04T06:24:22;99913.06;;;2.30;100.00
24031;BME280;12240;51.142;22.486;2023-04-04T06:26:51;99919.81;;;2.34;100.00
24031;BME280;12240;51.142;22.486;2023-04-04T06:29:23;99911.47;;;2.57;100.00
24031;BME280;12240;51.142;22.486;2023-04-04T06:31:55;99914.88;;;2.73;100.00
24031;BME280;12240;51.142;22.486;2023-04-04T06:34:35;99917.97;;;3.09;100.00
24031;BME280;12240;51.142;22.486;2023-04-04T06:37:04;99911.75;;;3.38;100.00
24031;BME280;12240;51.142;22.486;2023-04-04T06:39:39;99897.34;;;3.58;100.00
24031;BME280;12240;51.142;22.486;2023-04-04T06:42:15;99899.72;;;3.48;100.00
24031;BME280;12240;51.142;22.486;2023-04-04T06:44:47;99888.84;;;2.25;100.00
24031;BME280;12240;51.142;22.486;2023-04-04T06:47:16;99900.72;;;2.16;100.00
24031;BME280;12240;51.142;22.486;2023-04-04T06:49:44;99912.56;;;2.97;100.00
24031;BME280;12240;51.142;22.486;2023-04-04T06:52:12;99908.16;;;3.53;100.00
24031;BME280;12240;51.142;22.486;2023-04-04T06:54:41;99908.72;;;3.99;100.00
24031;BME280;12240;51.142;22.486;2023-04-04T06:57:09;99892.94;;;4.26;100.00
24031;BME280;12240;51.142;22.486;2023-04-04T06:59:37;99894.41;;;3.77;100.00
24031;BME280;12240;51.142;22.486;2023-04-04T07:02:06;99892.47;;;3.10;100.00
24031;BME280;12240;51.142;22.486;2023-04-04T07:04:34;99887.78;;;3.01;100.00
24031;BME280;12240;51.142;22.486;2023-04-04T07:07:04;99891.25;;;3.43;100.00
24031;BME280;12240;51.142;22.486;2023-04-04T07:09:33;99884.41;;;3.13;100.00
24031;BME280;12240;51.142;22.486;2023-04-04T07:12:01;99877.47;;;2.24;100.00
24031;BME280;12240;51.142;22.486;2023-04-04T07:14:30;99888.19;;;2.65;100.00
24031;BME280;12240;51.142;22.486;2023-04-04T07:16:58;99875.13;;;2.20;100.00
24031;BME280;12240;51.142;22.486;2023-04-04T07:19:30;99882.28;;;2.32;100.00
24031;BME280;12240;51.142;22.486;2023-04-04T07:21:58;99876.84;;;1.90;100.00
24031;BME280;12240;51.142;22.486;2023-04-04T07:24:26;99877.16;;;2.15;100.00
24031;BME280;12240;51.142;22.486;2023-04-04T07:26:55;99879.13;;;3.41;100.00
24031;BME280;12240;51.142;22.486;2023-04-04T07:29:24;99872.28;;;3.52;100.00
24031;BME280;12240;51.142;22.486;2023-04-04T07:31:52;99860.06;;;2.95;100.00
24031;BME280;12240;51.142;22.486;2023-04-04T07:34:21;99861.13;;;2.49;100.00
24031;BME280;12240;51.142;22.486;2023-04-04T07:36:49;99878.53;;;3.64;100.00
24031;BME280;12240;51.142;22.486;2023-04-04T07:39:18;99874.56;;;3.98;100.00
24031;BME280;12240;51.142;22.486;2023-04-04T07:41:47;99864.88;;;4.89;100.00
24031;BME280;12240;51.142;22.486;2023-04-04T07:44:15;99860.22;;;5.30;100.00
24031;BME280;12240;51.142;22.486;2023-04-04T07:46:43;99845.53;;;5.75;100.00
24031;BME280;12240;51.142;22.486;2023-04-04T07:49:22;99838.59;;;5.98;100.00
24031;BME280;12240;51.142;22.486;2023-04-04T07:51:50;99834.94;;;4.90;100.00
24031;BME280;12240;51.142;22.486;2023-04-04T07:54:19;99834.00;;;3.47;100.00
24031;BME280;12240;51.142;22.486;2023-04-04T07:56:47;99841.31;;;5.11;100.00
24031;BME280;12240;51.142;22.486;2023-04-04T07:59:15;99837.09;;;5.82;100.00
24031;BME280;12240;51.142;22.486;2023-04-04T08:01:44;99832.81;;;5.93;100.00
24031;BME280;12240;51.142;22.486;2023-04-04T08:04:13;99834.16;;;6.67;100.00
24031;BME280;12240;51.142;22.486;2023-04-04T08:06:41;99828.22;;;7.09;100.00
24031;BME280;12240;51.142;22.486;2023-04-04T08:09:10;99820.22;;;5.60;100.00
24031;BME280;12240;51.142;22.486;2023-04-04T08:11:38;99815.25;;;5.19;100.00
24031;BME280;12240;51.142;22.486;2023-04-04T08:14:06;99831.88;;;6.17;100.00
24031;BME280;12240;51.142;22.486;2023-04-04T08:16:39;99833.47;;;6.31;100.00
24031;BME280;12240;51.142;22.486;2023-04-04T08:19:07;99812.75;;;4.93;100.00
24031;BME280;12240;51.142;22.486;2023-04-04T08:21:36;99810.63;;;4.60;100.00
24031;BME280;12240;51.142;22.486;2023-04-04T08:24:05;99821.72;;;6.11;100.00
24031;BME280;12240;51.142;22.486;2023-04-04T08:26:34;99818.97;;;6.47;100.00
24031;BME280;12240;51.142;22.486;2023-04-04T08:29:03;99810.53;;;6.42;100.00
24031;BME280;12240;51.142;22.486;2023-04-04T08:31:32;99807.41;;;5.66;100.00
24031;BME280;12240;51.142;22.486;2023-04-04T08:34:01;99827.34;;;6.76;100.00
24031;BME280;12240;51.142;22.486;2023-04-04T08:36:29;99814.59;;;7.36;100.00
24031;BME280;12240;51.142;22.486;2023-04-04T08:38:58;99812.06;;;7.57;100.00
24031;BME280;12240;51.142;22.486;2023-04-04T08:41:29;99794.34;;;6.58;100.00
24031;BME280;12240;51.142;22.486;2023-04-04T08:44:02;99799.66;;;6.23;100.00
24031;BME280;12240;51.142;22.486;2023-04-04T08:46:32;99805.34;;;7.08;100.00
24031;BME280;12240;51.142;22.486;2023-04-04T08:49:01;99792.38;;;4.95;100.00
24031;BME280;12240;51.142;22.486;2023-04-04T08:51:31;99803.88;;;5.78;100.00
24031;BME280;12240;51.142;22.486;2023-04-04T08:54:01;99800.91;;;5.83;100.00
24031;BME280;12240;51.142;22.486;2023-04-04T08:56:30;99795.16;;;6.02;100.00
24031;BME280;12240;51.142;22.486;2023-04-04T08:58:59;99793.63;;;6.21;100.00
24031;BME280;12240;51.142;22.486;2023-04-04T09:01:28;99794.38;;;6.80;100.00
24031;BME280;12240;51.142;22.486;2023-04-04T09:03:57;99782.81;;;6.70;98.95
24031;BME280;12240;51.142;22.486;2023-04-04T09:06:27;99784.13;;;6.53;100.00
24031;BME280;12240;51.142;22.486;2023-04-04T09:08:57;99786.78;;;5.71;98.78
24031;BME280;12240;51.142;22.486;2023-04-04T09:11:27;99790.88;;;5.88;100.00
24031;BME280;12240;51.142;22.486;2023-04-04T09:13:59;99787.53;;;5.97;100.00
24031;BME280;12240;51.142;22.486;2023-04-04T09:16:31;99775.00;;;6.12;98.35
24031;BME280;12240;51.142;22.486;2023-04-04T09:18:59;99780.22;;;7.03;100.00
24031;BME280;12240;51.142;22.486;2023-04-04T09:21:32;99764.53;;;6.45;93.36
24031;BME280;12240;51.142;22.486;2023-04-04T09:24:01;99767.97;;;6.45;93.01
24031;BME280;12240;51.142;22.486;2023-04-04T09:26:50;99778.69;;;6.33;94.62
24031;BME280;12240;51.142;22.486;2023-04-04T09:29:20;99774.81;;;6.02;96.50
24031;BME280;12240;51.142;22.486;2023-04-04T09:31:49;99775.84;;;6.12;98.55
24031;BME280;12240;51.142;22.486;2023-04-04T09:34:20;99773.97;;;5.18;95.50
24031;BME280;12240;51.142;22.486;2023-04-04T09:36:48;99771.28;;;4.44;94.59
24031;BME280;12240;51.142;22.486;2023-04-04T09:39:20;99798.47;;;5.56;100.00
24031;BME280;12240;51.142;22.486;2023-04-04T09:41:50;99779.59;;;5.50;98.39
24031;BME280;12240;51.142;22.486;2023-04-04T09:44:19;99773.19;;;4.67;95.25
24031;BME280;12240;51.142;22.486;2023-04-04T09:46:47;99785.09;;;5.47;99.56
24031;BME280;12240;51.142;22.486;2023-04-04T09:49:19;99772.78;;;5.58;98.61
24031;BME280;12240;51.142;22.486;2023-04-04T09:51:54;99756.56;;;5.52;96.67
24031;BME280;12240;51.142;22.486;2023-04-04T09:54:22;99755.22;;;4.98;94.04
24031;BME280;12240;51.142;22.486;2023-04-04T09:56:57;99746.16;;;4.89;93.18
24031;BME280;12240;51.142;22.486;2023-04-04T09:59:26;99739.31;;;4.49;91.11
24031;BME280;12240;51.142;22.486;2023-04-04T10:01:55;99739.31;;;4.36;91.35
24031;BME280;12240;51.142;22.486;2023-04-04T10:04:23;99741.13;;;5.10;91.34
24031;BME280;12240;51.142;22.486;2023-04-04T10:06:54;99745.81;;;5.30;92.76
24031;BME280;12240;51.142;22.486;2023-04-04T10:09:23;99736.69;;;4.74;91.14
24031;BME280;12240;51.142;22.486;2023-04-04T10:12:08;99749.78;;;5.24;93.64
24031;BME280;12240;51.142;22.486;2023-04-04T10:14:37;99757.44;;;5.40;94.59
24031;BME280;12240;51.142;22.486;2023-04-04T10:17:07;99754.69;;;5.41;94.93
24031;BME280;12240;51.142;22.486;2023-04-04T10:19:40;99748.38;;;5.31;93.47
24031;BME280;12240;51.142;22.486;2023-04-04T10:22:10;99749.78;;;5.48;93.04
24031;BME280;12240;51.142;22.486;2023-04-04T10:24:38;99747.25;;;5.82;94.99
24031;BME280;12240;51.142;22.486;2023-04-04T10:27:07;99745.19;;;6.10;95.13
24031;BME280;12240;51.142;22.486;2023-04-04T10:29:37;99747.53;;;5.78;91.95
24031;BME280;12240;51.142;22.486;2023-04-04T10:32:05;99751.00;;;5.91;93.66
24031;BME280;12240;51.142;22.486;2023-04-04T10:35:04;99756.91;;;5.71;95.20
24031;BME280;12240;51.142;22.486;2023-04-04T10:37:41;99752.72;;;5.79;95.21
24031;BME280;12240;51.142;22.486;2023-04-04T10:40:16;99754.81;;;5.63;94.73
24031;BME280;12240;51.142;22.486;2023-04-04T10:42:46;99760.81;;;5.65;94.39
24031;BME280;12240;51.142;22.486;2023-04-04T10:45:17;99736.53;;;4.13;89.12
24031;BME280;12240;51.142;22.486;2023-04-04T10:47:48;99745.22;;;4.40;90.80
24031;BME280;12240;51.142;22.486;2023-04-04T10:50:19;99764.25;;;5.55;95.83
24031;BME280;12240;51.142;22.486;2023-04-04T10:52:49;99750.78;;;5.34;93.07
24031;BME280;12240;51.142;22.486;2023-04-04T10:55:18;99760.34;;;5.71;94.44
24031;BME280;12240;51.142;22.486;2023-04-04T10:57:49;99747.09;;;4.25;90.04
24031;BME280;12240;51.142;22.486;2023-04-04T11:00:20;99762.00;;;4.64;92.91
24031;BME280;12240;51.142;22.486;2023-04-04T11:02:55;99762.38;;;5.08;94.38
24031;BME280;12240;51.142;22.486;2023-04-04T11:05:38;99763.66;;;5.62;95.55
24031;BME280;12240;51.142;22.486;2023-04-04T11:08:22;99750.53;;;5.73;93.49
24031;BME280;12240;51.142;22.486;2023-04-04T11:10:53;99752.16;;;5.63;93.19
24031;BME280;12240;51.142;22.486;2023-04-04T11:13:26;99747.03;;;5.26;91.11
24031;BME280;12240;51.142;22.486;2023-04-04T11:16:13;99760.31;;;5.60;94.31
24031;BME280;12240;51.142;22.486;2023-04-04T11:21:20;99757.34;;;5.65;95.16
24031;BME280;12240;51.142;22.486;2023-04-04T11:26:41;99755.94;;;5.72;95.37
24031;BME280;12240;51.142;22.486;2023-04-04T11:29:20;99745.72;;;5.91;95.78
24031;BME280;12240;51.142;22.486;2023-04-04T11:31:49;99748.13;;;5.11;93.45
24031;BME280;12240;51.142;22.486;2023-04-04T11:34:32;99750.94;;;5.20;94.90
24031;BME280;12240;51.142;22.486;2023-04-04T11:37:15;99752.66;;;5.45;95.50
24031;BME280;12240;51.142;22.486;2023-04-04T11:39:48;99739.59;;;5.07;93.00
24031;BME280;12240;51.142;22.486;2023-04-04T11:42:33;99763.09;;;5.82;97.77
24031;BME280;12240;51.142;22.486;2023-04-04T11:45:06;99747.63;;;5.89;94.57
24031;BME280;12240;51.142;22.486;2023-04-04T11:47:38;99740.50;;;5.66;93.27
24031;BME280;12240;51.142;22.486;2023-04-04T11:50:08;99736.13;;;5.54;93.00
24031;BME280;12240;51.142;22.486;2023-04-04T11:52:37;99730.88;;;4.69;90.68
24031;BME280;12240;51.142;22.486;2023-04-04T11:55:18;99731.22;;;5.13;93.78
24031;BME280;12240;51.142;22.486;2023-04-04T11:57:49;99728.06;;;4.96;92.91
24031;BME280;12240;51.142;22.486;2023-04-04T12:00:30;99719.34;;;4.83;92.29
24031;BME280;12240;51.142;22.486;2023-04-04T12:02:59;99733.97;;;4.99;94.99
24031;BME280;12240;51.142;22.486;2023-04-04T12:05:27;99725.41;;;5.08;95.29
24031;BME280;12240;51.142;22.486;2023-04-04T12:07:58;99725.28;;;5.22;94.71
24031;BME280;12240;51.142;22.486;2023-04-04T12:10:33;99725.06;;;5.25;94.43
24031;BME280;12240;51.142;22.486;2023-04-04T12:13:08;99713.53;;;5.26;92.43
24031;BME280;12240;51.142;22.486;2023-04-04T12:15:37;99707.44;;;4.64;89.35
24031;BME280;12240;51.142;22.486;2023-04-04T12:18:07;99722.69;;;5.33;92.86
24031;BME280;12240;51.142;22.486;2023-04-04T12:20:39;99702.06;;;5.38;89.25
24031;BME280;12240;51.142;22.486;2023-04-04T12:23:08;99714.63;;;5.71;90.59
24031;BME280;12240;51.142;22.486;2023-04-04T12:25:37;99708.66;;;5.33;88.58
24031;BME280;12240;51.142;22.486;2023-04-04T12:28:07;99706.19;;;5.42;89.43
24031;BME280;12240;51.142;22.486;2023-04-04T12:30:37;99706.09;;;5.67;89.10
24031;BME280;12240;51.142;22.486;2023-04-04T12:33:06;99706.97;;;5.79;89.48
24031;BME280;12240;51.142;22.486;2023-04-04T12:35:34;99708.09;;;5.04;88.18
24031;BME280;12240;51.142;22.486;2023-04-04T12:38:05;99725.94;;;5.37;91.55
24031;BME280;12240;51.142;22.486;2023-04-04T12:40:38;99728.13;;;5.55;93.73
24031;BME280;12240;51.142;22.486;2023-04-04T12:43:16;99712.72;;;5.49;92.45
24031;BME280;12240;51.142;22.486;2023-04-04T12:45:44;99724.00;;;5.51;93.18
24031;BME280;12240;51.142;22.486;2023-04-04T12:48:14;99717.09;;;5.61;93.08
24031;BME280;12240;51.142;22.486;2023-04-04T12:50:53;99712.69;;;5.73;92.51
24031;BME280;12240;51.142;22.486;2023-04-04T12:53:26;99711.81;;;5.61;92.02
24031;BME280;12240;51.142;22.486;2023-04-04T12:56:02;99703.25;;;4.62;89.97
24031;BME280;12240;51.142;22.486;2023-04-04T12:58:32;99701.69;;;4.96;90.88
24031;BME280;12240;51.142;22.486;2023-04-04T13:01:03;99709.94;;;4.91;92.27
24031;BME280;12240;51.142;22.486;2023-04-04T13:03:33;99715.75;;;4.96;92.33
24031;BME280;12240;51.142;22.486;2023-04-04T13:06:10;99705.91;;;4.98;91.74
24031;BME280;12240;51.142;22.486;2023-04-04T13:08:52;99706.22;;;4.45;90.07
24031;BME280;12240;51.142;22.486;2023-04-04T13:11:21;99706.84;;;4.48;91.54
24031;BME280;12240;51.142;22.486;2023-04-04T13:14:02;99717.75;;;4.93;93.21
24031;BME280;12240;51.142;22.486;2023-04-04T13:16:33;99697.38;;;4.95;91.62
24031;BME280;12240;51.142;22.486;2023-04-04T13:19:04;99699.56;;;5.01;92.65